Overton, Nevada Weather observations

Data are for observation ending at time listed.
 Day   Time    Ave.   Ave.  Ave.  Vector   Max.   Stn.    Total    Solar   Ave.  
  of    of     Air    Rel.  Wind   Wind    Wind   Baro.  Precip.   Rad.    Soil  
Year   Day     Temp.  Hum.  Speed  Dir.    Gust   Pres.                    Temp. 
2014   (PST)    F      %     mph   deg.    mph     mb.     in.     W/m2     F   
------------------------------------------------------------------------------
 243    0:00   93.3    13    4.7   139      9.8   958.9    0.00       0    89.3
 243    0:10   92.1    14    2.5   129      5.8   959.0    0.00       0    89.3
 243    0:20   89.3    16    2.2    16      6.6   959.2    0.00       0    89.2
 243    0:30   80.1    25    1.5   312      3.8   959.1    0.00       0    89.0
 243    0:40   79.8    25    1.4   287      3.7   958.8    0.00       0    88.7
 243    0:50   79.0    26    0.2   324      2.1   958.6    0.00       0    88.4
 243    1:00   77.8    26    2.3   295      5.5   958.5    0.00       0    88.1
 243    1:10   76.9    27    3.3   318      5.1   958.6    0.00       0    87.9
 243    1:20   76.6    27    3.6   310      4.9   958.6    0.00       0    87.5
 243    1:30   78.3    25    3.2   304      5.6   958.5    0.00       0    87.2
 243    1:40   76.8    26    3.0   317      4.0   958.5    0.00       0    87.0
 243    1:50   75.6    27    2.8   319      4.7   958.6    0.00       0    86.7
 243    2:00   75.9    27    2.8   308      5.4   958.5    0.00       0    86.5
 243    2:10   76.7    26    2.2   277      3.3   958.5    0.00       0    86.2
 243    2:20   76.9    25    3.6   301      5.9   958.4    0.00       0    86.0
 243    2:30   76.7    26    4.2   305      6.1   958.5    0.00       0    85.8
 243    2:40   75.4    27    3.1   315      6.1   958.6    0.00       0    85.6
 243    2:50   74.5    28    3.1   320      5.6   958.6    0.00       0    85.3
 243    3:00   73.8    29    1.3   295      2.9   958.8    0.00       0    85.1
 243    3:10   73.5    30    3.3   301      6.1   958.8    0.00       0    84.9
 243    3:20   74.6    28    3.1   279      5.6   959.0    0.00       0    84.7
 243    3:30   75.5    27    3.6   308      7.2   959.1    0.00       0    84.5
 243    3:40   75.2    27    3.1   286      5.8   959.3    0.00       0    84.3
 243    3:50   75.4    27    2.7   278      4.6   959.4    0.00       0    84.1
 243    4:00   75.1    27    3.5   318      6.0   959.5    0.00       0    84.0
 243    4:10   74.3    27    4.0   329      6.3   959.5    0.00       0    83.8
 243    4:20   74.3    26    3.1   311      6.9   959.6    0.00       0    83.6
 243    4:30   75.2    25    1.3   297      4.6   959.8    0.00       0    83.4
 243    4:40   74.9    26    1.7   253      3.2   959.9    0.00       0    83.3
 243    4:50   74.9    26    2.4   288      3.9   960.0    0.00       0    83.2
 243    5:00   75.1    25    1.9   293      5.5   960.1    0.00       0    83.0
 243    5:10   73.5    26    2.5   303      4.9   960.3    0.00       3    82.8
 243    5:20   72.6    28    3.1   306      4.4   960.4    0.00       6    82.7
 243    5:30   70.8    30    3.6   316      5.6   960.5    0.00      14    82.5
 243    5:40   72.5    29    2.4   318      4.1   960.7    0.00      32    82.4
 243    5:50   74.0    28    1.5   283      3.9   960.8    0.00      63    82.5
 243    6:00   75.6    26    1.7   276      4.4   961.0    0.00      95    82.8
 243    6:10   76.7    25    2.3   280      5.6   961.2    0.00     115    83.4
 243    6:20   77.1    25    3.8   300      6.2   961.5    0.00      76    83.9
 243    6:30   77.7    24    2.8   313      4.7   961.8    0.00     112    84.6
 243    6:40   78.9    24    2.6   299      4.6   962.0    0.00     169    85.3
 243    6:50   80.7    23    1.8   294      3.3   962.3    0.00     239    86.1
 243    7:00   81.4    23    2.9   310      5.4   962.5    0.00     268    87.0
 243    7:10   82.7    23    1.4   327      2.6   962.8    0.00     298    87.8
 243    7:20   83.7    21    2.0   313      3.4   962.8    0.00     328    88.8
 243    7:30   84.3    21    2.9   327      4.7   963.1    0.00     357    89.7
 243    7:40   85.6    21    2.6   339      3.5   963.3    0.00     385    90.6
 243    7:50   86.6    21    2.3   340      3.8   963.5    0.00     211    91.5
 243    8:00   87.9    20    2.1   338      3.6   963.6    0.00      47    92.4
 243    8:10   88.6    19    3.1   337      5.0   963.9    0.00      45    93.4
 243    8:20   89.5    18    4.7   334      8.4   964.1    0.00      45    94.3
 243    8:30   90.4    17    5.2   319      8.2   964.2    0.00      84    95.1
 243    8:40   90.9    16    4.4   326      6.5   964.3    0.00     118    95.9
 243    8:50   91.7    15    3.1   326      4.8   964.5    0.00     509    96.7
 243    9:00   92.8    15    2.9   334      4.8   964.6    0.00     597    97.8
 243    9:10   94.5    14    1.7   260      3.7   964.7    0.00     621    98.7
 243    9:20   94.9    14    1.9   292      4.4   964.8    0.00     595    99.7
 243    9:30   96.0    13    2.0   266      4.0   965.0    0.00     490    100.6
 243    9:40   96.2    13    3.0   353      6.4   965.0    0.00     207    101.5
 243    9:50   96.7    13    3.4     4      6.0   965.0    0.00     540    102.2
 243   10:00   97.3    12    2.4   313      5.9   964.9    0.00     717    102.8
 243   10:10   97.3    12    3.0   302      6.1   964.9    0.00     727    103.5
 243   10:20   97.7    12    2.7     7      6.4   964.9    0.00     730    104.1
 243   10:30   98.3    11    2.4    73      4.4   964.8    0.00     760    104.5
 243   10:40   98.4    12    3.5    58      6.1   964.7    0.00     766    104.9
 243   10:50   99.9    12    3.1    52      5.8   964.7    0.00     768    105.1
 243   11:00   99.8    12    4.1    45      6.8   964.7    0.00     786    105.0
 243   11:10  100.1    11    3.0    46      6.7   964.6    0.00     793    104.2
 243   11:20  100.0    11    3.5    78      6.6   964.5    0.00     799    103.2
 243   11:30   99.9    11    3.1   115      5.8   964.4    0.00     804    102.4
 243   11:40  100.4    10    2.2    58      4.2   964.3    0.00     797    99999.0
 243   11:50  101.8    10    2.8   105      5.2   964.2    0.00     671    99999.0
 243   12:00  101.7    10    3.3    58      5.9   964.1    0.00     800    99999.0
 243   12:10  102.4    10    3.9    42      6.3   964.1    0.00     805    99999.0
 243   12:20  102.8    10    3.9    56      7.5   964.0    0.00     804    99999.0
 243   12:30  102.4    10    3.3    67      7.4   963.9    0.00     781    99999.0
 243   12:40  102.3    10    3.6    66      6.1   963.8    0.00     781    99999.0
 243   12:50  102.8     9    2.9    67      6.1   963.7    0.00     780    99999.0
 243   13:00  103.4     9    2.6   297      6.4   963.5    0.00     714    99999.0
 243   13:10  103.7     9    3.1     9      6.0   963.4    0.00     697    99999.0
 243   13:20  104.0     9    3.6    43      8.1   963.3    0.00     668    99999.0
 243   13:30  103.9     9    3.3   334      6.0   963.2    0.00     553    99999.0
 243   13:40  103.8     9    4.1    53      7.6   963.1    0.00     264    99999.0
 243   13:50  105.0     9    3.1    56      6.1   963.0    0.00     329    99999.0
 243   14:00  104.1     9    4.2    68      7.3   962.9    0.00     235    99999.0
 243   14:10  104.4     9    3.7    95      8.3   962.9    0.00     652    99999.0
 243   14:20  104.5     8    3.7    93      7.8   962.9    0.00     611    99999.0
 243   14:30  104.8     8    2.9    66      6.5   962.7    0.00     572    99999.0
 243   14:40  105.3     8    1.9    68      4.2   962.6    0.00     514    99999.0
 243   14:50  105.7     8    3.9    72      8.8   962.6    0.00     546    99999.0
 243   15:00  104.9     8    4.2    78     11.7   962.5    0.00     465    99999.0
 243   15:10  105.2     8    3.3   122      6.7   962.3    0.00     471    99999.0
 243   15:20  105.3     8    4.6   168      8.5   962.2    0.00     476    99999.0
 243   15:30  104.8     8    5.6   152      9.6   962.1    0.00     439    99999.0
 243   15:40  105.6     8    4.4   128      9.2   962.0    0.00     410    99999.0
 243   15:50  105.2     8    2.3   122      7.6   961.9    0.00     390    99999.0
 243   16:00  105.7     8    3.3   116      8.4   961.9    0.00     334    99999.0
 243   16:10  105.2     8    4.0    91      7.1   961.8    0.00     328    99999.0
 243   16:20  104.7     8    3.8    86      7.0   961.7    0.00     296    99999.0
 243   16:30  104.6     9    4.3    95      9.1   961.6    0.00     266    99999.0
 243   16:40  104.6     9    3.9   103      8.0   961.4    0.00     231    99999.0
 243   16:50  104.5     9    3.6   107      7.0   961.3    0.00     194    99999.0
 243   17:00  104.1     9    3.5   111      7.8   961.2    0.00     174    99999.0
 243   17:10  103.8     9    3.6   116      7.9   961.2    0.00     144    99999.0
 243   17:20  103.5     9    3.1   110      7.3   961.1    0.00     116    99999.0
 243   17:30  102.3    10    2.5   105      5.5   960.9    0.00      75    99999.0
 243   17:40  101.3    10    2.9   112      6.8   960.8    0.00      20    99999.0
 243   17:50  100.7    10    3.0   119      5.9   960.6    0.00      16    99999.0
 243   18:00  100.1    11    1.9   114      4.1   960.3    0.00      10    99999.0
 243   18:10   99.0    11    1.0   136      3.1   960.1    0.00       5    99999.0
 243   18:20   97.0    13    0.6   188      3.1   960.1    0.00       3    99999.0
 243   18:30   94.0    15    0.2   164      1.5   960.0    0.00       0    99999.0
 243   18:40   92.6    16    0.7   187      1.8   959.9    0.00       0    99999.0
 243   18:50   89.7    19    0.1   334      1.2   959.8    0.00       0    99999.0
 243   19:00   87.2    21    1.2   343      1.8   959.7    0.00       0    99999.0
 243   19:10   85.4    23    1.8   348      3.1   959.7    0.00       0    99999.0
 243   19:20   85.6    23    0.8   340      1.6   959.6    0.00       0    99999.0
 243   19:30   86.4    21    0.2   243      1.6   959.7    0.00       0    99999.0
 243   19:40   85.8    23    0.0     0      0.0   959.6    0.00       0    99999.0
 243   19:50   83.8    24    0.1   280      1.2   959.6    0.00       0    99999.0
 243   20:00   83.6    24    0.2   302      1.2   959.6    0.00       0    99999.0
 243   20:10   83.2    25    1.3   319      2.6   959.6    0.00       0    99999.0
 243   20:20   81.9    26    2.0   304      3.1   959.6    0.00       0    99999.0
 243   20:30   81.0    27    1.5   310      2.6   959.6    0.00       0    99999.0
 243   20:40   80.5    27    1.3   321      2.3   959.6    0.00       0    99999.0
 243   20:50   80.2    28    1.9   326      2.9   959.6    0.00       0    99999.0
 243   21:00   79.6    28    1.0   292      2.5   959.5    0.00       0    99999.0
 243   21:10   79.5    28    1.3   290      2.4   959.5    0.00       0    99999.0
 243   21:20   78.9    28    1.4   325      2.2   959.5    0.00       0    99999.0
 243   21:30   78.7    29    1.9   322      3.3   959.5    0.00       0    99999.0
 243   21:40   79.6    27    1.9   311      4.2   959.6    0.00       0    89.8
 243   21:50   78.1    28    2.7   301      5.3   959.6    0.00       0    89.5
 243   22:00   78.1    27    2.5   309      4.9   959.7    0.00       0    99999.0
 243   22:10   76.9    28    1.5   291      3.2   959.7    0.00       0    99999.0
 243   22:20   77.1    27    2.2   291      3.4   959.7    0.00       0    88.7
 243   22:30   78.2    25    2.4   304      3.9   959.7    0.00       0    99999.0
 243   22:40   77.7    26    1.7   312      4.4   959.7    0.00       0    88.2
 243   22:50   78.5    24    1.5   314      4.4   959.8    0.00       0    87.9
 243   23:00   78.0    25    2.0   307      5.3   959.8    0.00       0    87.7
 243   23:10   77.9    25    2.3   311      4.9   959.8    0.00       0    87.6
 243   23:20   78.0    24    3.5   307      5.4   959.9    0.00       0    87.3
 243   23:30   78.9    24    1.8   291      4.5   959.9    0.00       0    87.1

Return to Overton, Nevada graphs page.


Western Regional Climate Center,wrcc@dri.edu